Anglian Lady — VOLP — position and weather

sailwx.info

Track history (hours):
 
Tides and Currents Weather Stations Pressure Air Temp Water Temp Dewpoint Dewpoint Depression Visibility Wind Speed Wind Dir Waves Ship Positions

Anglian Lady

Last reported at 2015-Apr-30 14:32 UTC. Time now 2015-May-04 01:58 UTC.
Position N 45°52' W 084°10'.

Length 32 m; draft 5 m.

Type: Tug. MMSI: 316002238.

Date/timePositionNaut miles runAvg speedWind from/ knotsBaromVisibWave heightAir tempDewpointWater temp
2015-Apr-30 14:32N 45°52' W 084°10'10 9.8
2015-Apr-30 13:33N 45°51' W 084°24'10 9.7
2015-Apr-30 12:34N 45°50' W 084°38'9 9.5
2015-Apr-30 11:34N 45°49' W 084°51'10 9.7
2015-Apr-30 10:34N 45°50' W 085°05'8 8.4
2015-Apr-30 09:34N 45°43' W 085°12'9 9.3
2015-Apr-30 08:34N 45°35' W 085°20'9 9.4
2015-Apr-30 07:34N 45°27' W 085°28'9 9.5
2015-Apr-30 06:34N 45°20' W 085°36'9 9.4
2015-Apr-30 05:34N 45°12' W 085°44'9 9.3
2015-Apr-30 04:33N 45°05' W 085°52'  
2015-Apr-27 09:12N 44°60' W 085°60'5 8.2
2015-Apr-27 08:34N 45°04' W 085°55'8 8.4
2015-Apr-27 07:34N 45°11' W 085°49'8 8.4
2015-Apr-27 06:34N 45°17' W 085°42'8 8.4
2015-Apr-27 05:34N 45°24' W 085°35'8 8.4
2015-Apr-27 04:33N 45°31' W 085°27'8 8.5
2015-Apr-27 03:34N 45°37' W 085°20'8 8.3
2015-Apr-27 02:33N 45°44' W 085°12'7 7.2
2015-Apr-27 01:34N 45°50' W 085°06'8 7.8
2015-Apr-27 00:34N 45°50' W 084°55'8 7.7
2015-Apr-26 23:33N 45°49' W 084°44'8 7.6
2015-Apr-26 22:34N 45°51' W 084°34'6 5.5
2015-Apr-26 21:34N 45°52' W 084°26'  
Track history (hours):
 
Tides and Currents Weather Stations Pressure Air Temp Water Temp Dewpoint Dewpoint Depression Visibility Wind Speed Wind Dir Waves Ship Positions

Anglian Lady

Last reported at 2015-Apr-30 14:32 UTC. Time now 2015-May-04 01:58 UTC.
Position N 45°52' W 084°10'.

Length 32 m; draft 5 m.

Type: Tug. MMSI: 316002238.

Date/timePositionNaut miles runAvg speedWind from/ knotsBaromVisibWave heightAir tempDewpointWater temp
2015-Apr-30 14:32N 45°52' W 084°10'10 9.8
2015-Apr-30 13:33N 45°51' W 084°24'10 9.7
2015-Apr-30 12:34N 45°50' W 084°38'9 9.5
2015-Apr-30 11:34N 45°49' W 084°51'10 9.7
2015-Apr-30 10:34N 45°50' W 085°05'8 8.4
2015-Apr-30 09:34N 45°43' W 085°12'9 9.3
2015-Apr-30 08:34N 45°35' W 085°20'9 9.4
2015-Apr-30 07:34N 45°27' W 085°28'9 9.5
2015-Apr-30 06:34N 45°20' W 085°36'9 9.4
2015-Apr-30 05:34N 45°12' W 085°44'9 9.3
2015-Apr-30 04:33N 45°05' W 085°52'  
2015-Apr-27 09:12N 44°60' W 085°60'5 8.2
2015-Apr-27 08:34N 45°04' W 085°55'8 8.4
2015-Apr-27 07:34N 45°11' W 085°49'8 8.4
2015-Apr-27 06:34N 45°17' W 085°42'8 8.4
2015-Apr-27 05:34N 45°24' W 085°35'8 8.4
2015-Apr-27 04:33N 45°31' W 085°27'8 8.5
2015-Apr-27 03:34N 45°37' W 085°20'8 8.3
2015-Apr-27 02:33N 45°44' W 085°12'7 7.2
2015-Apr-27 01:34N 45°50' W 085°06'8 7.8
2015-Apr-27 00:34N 45°50' W 084°55'8 7.7
2015-Apr-26 23:33N 45°49' W 084°44'8 7.6
2015-Apr-26 22:34N 45°51' W 084°34'6 5.5
2015-Apr-26 21:34N 45°52' W 084°26'  

Dump ship's entire track history